Terminal Aerodrome Forecast
Issued by NWS

Home | Current Version | Previous Version | Text Only | Print | Product List | Glossary On
Versions: 1 2 3 4 5 6 7 8 9 10 11 12 13 14 15 16 17 18 19
000
FTUS46 KMTR 122300
TAFMRY
TAF
KMRY 122320Z 1300/1324 28009KT P6SM BKN012
     FM130400 25006KT P6SM OVC010
     FM131200 25004KT P6SM OVC005
     FM131800 28005KT P6SM SCT010
     FM132000 28010KT P6SM SKC=

USA.gov is the U.S. government's official web portal to all federal, state and local government web resources and services.